Time;durP1;ratioP1;P1;durP2;ratioP2;P2;SDS_P1;SDS_P2;PMS_P1;PMS_P2;Temp;Humidity;BMP_temperature;BMP_pressure;BME280_temperature;BME280_humidity;BME280_pressure;Samples;Min_cycle;Max_cycle;Signal;HPM_P1;HPM_P2
2023/10/30 00:01:23;;;;;;;5.40;4.87;;;21.90;59.10;;;;;;5050597;28;20183;-68
2023/10/30 00:03:50;;;;;;;4.77;4.30;;;21.80;59.00;;;;;;5050558;28;20175;-68
2023/10/30 00:06:15;;;;;;;5.40;4.90;;;21.80;59.00;;;;;;5050472;28;20451;-68
2023/10/30 00:08:41;;;;;;;4.80;4.40;;;21.80;59.00;;;;;;5050527;28;20484;-68
2023/10/30 00:11:07;;;;;;;5.13;4.63;;;21.80;59.00;;;;;;5050290;28;20203;-67
2023/10/30 00:13:33;;;;;;;5.03;4.53;;;21.80;59.00;;;;;;5050307;28;20224;-68
2023/10/30 00:15:58;;;;;;;4.57;4.17;;;21.80;59.00;;;;;;5050247;28;20210;-68
2023/10/30 00:18:24;;;;;;;5.47;4.97;;;21.80;59.00;;;;;;5050139;28;20190;-67
2023/10/30 00:20:50;;;;;;;4.90;4.50;;;21.80;59.00;;;;;;5050256;28;20258;-68
2023/10/30 00:23:15;;;;;;;4.73;4.33;;;21.80;59.00;;;;;;5050238;28;20254;-68
2023/10/30 00:25:41;;;;;;;4.43;4.03;;;21.90;59.10;;;;;;5050446;28;20550;-67
2023/10/30 00:28:07;;;;;;;4.30;3.90;;;21.90;59.10;;;;;;5050117;28;20703;-68
2023/10/30 00:30:32;;;;;;;5.10;4.70;;;21.80;59.00;;;;;;5049996;28;20554;-68
2023/10/30 00:32:58;;;;;;;4.67;4.27;;;21.90;59.00;;;;;;5050136;28;20171;-67
2023/10/30 00:35:24;;;;;;;4.40;4.03;;;21.80;58.90;;;;;;5050265;28;20561;-68
2023/10/30 00:37:50;;;;;;;4.73;4.33;;;21.90;59.00;;;;;;5049955;28;20170;-68
2023/10/30 00:40:16;;;;;;;4.60;4.20;;;21.80;59.00;;;;;;5050285;28;20417;-68
2023/10/30 00:42:41;;;;;;;5.00;4.50;;;21.80;59.00;;;;;;5049922;28;20668;-68
2023/10/30 00:45:08;;;;;;;5.37;4.80;;;21.80;59.00;;;;;;5049857;28;20745;-68
2023/10/30 00:47:38;;;;;;;5.20;4.70;;;21.80;59.00;;;;;;5049954;28;20412;-68
2023/10/30 00:50:05;;;;;;;5.10;4.70;;;21.80;59.50;;;;;;5048456;28;20465;-68
2023/10/30 00:52:30;;;;;;;4.73;4.23;;;21.80;59.00;;;;;;5054031;28;20520;-68
2023/10/30 00:54:56;;;;;;;5.07;4.67;;;21.80;59.50;;;;;;5053961;28;20516;-68
2023/10/30 00:57:22;;;;;;;4.60;4.20;;;21.80;59.00;;;;;;5053938;28;20642;-67
2023/10/30 00:59:48;;;;;;;4.60;4.20;;;21.90;59.10;;;;;;5053781;28;20213;-68
2023/10/30 01:02:14;;;;;;;5.20;4.77;;;21.80;59.00;;;;;;5053889;28;20825;-68
2023/10/30 01:04:39;;;;;;;4.57;4.17;;;21.90;59.00;;;;;;5053678;28;20474;-67
2023/10/30 01:07:05;;;;;;;5.53;5.03;;;21.80;59.00;;;;;;5053782;28;20175;-68
2023/10/30 01:09:30;;;;;;;4.37;3.97;;;21.80;59.00;;;;;;5053631;28;20661;-68
2023/10/30 01:11:56;;;;;;;4.33;3.93;;;21.80;59.00;;;;;;5053818;28;20297;-68
2023/10/30 01:14:22;;;;;;;4.13;3.83;;;21.80;59.00;;;;;;5052162;28;20522;-67
2023/10/30 01:16:49;;;;;;;4.40;4.00;;;21.90;59.00;;;;;;5053448;28;20189;-68
2023/10/30 01:19:15;;;;;;;5.20;4.70;;;21.90;59.10;;;;;;5053950;28;20425;-67
2023/10/30 01:21:41;;;;;;;5.10;4.60;;;21.90;59.00;;;;;;5053448;28;20443;-68
2023/10/30 01:24:08;;;;;;;4.90;4.50;;;21.80;59.00;;;;;;5053417;28;20409;-67
2023/10/30 01:26:34;;;;;;;4.37;3.80;;;21.90;59.00;;;;;;5053236;28;20190;-67
2023/10/30 01:29:00;;;;;;;4.53;4.13;;;21.90;59.00;;;;;;5053268;28;20408;-68
2023/10/30 01:31:27;;;;;;;4.17;3.87;;;21.80;59.00;;;;;;5053119;28;20833;-68
2023/10/30 01:33:56;;;;;;;4.40;4.10;;;21.90;59.10;;;;;;5053196;28;20175;-69
2023/10/30 01:36:22;;;;;;;5.30;4.80;;;21.90;59.00;;;;;;5053063;28;20519;-66
2023/10/30 01:38:48;;;;;;;4.40;4.10;;;21.80;58.90;;;;;;5051658;28;20484;-68
2023/10/30 01:41:14;;;;;;;5.20;4.80;;;21.90;59.00;;;;;;5053030;28;20420;-67
2023/10/30 01:43:39;;;;;;;5.10;4.60;;;21.80;59.00;;;;;;5053006;28;20273;-68
2023/10/30 01:46:08;;;;;;;5.33;4.83;;;21.80;59.00;;;;;;5052890;28;20538;-68
2023/10/30 01:48:35;;;;;;;5.10;4.70;;;21.80;58.90;;;;;;5052865;28;20230;-68
2023/10/30 01:51:02;;;;;;;5.00;4.00;;;21.80;58.90;;;;;;5052753;28;20452;-68
2023/10/30 01:53:30;;;;;;;5.10;4.70;;;21.80;59.00;;;;;;5052835;28;20495;-68
2023/10/30 01:55:56;;;;;;;5.37;4.97;;;21.80;59.00;;;;;;5052763;28;20838;-67
2023/10/30 01:58:26;;;;;;;5.37;4.87;;;21.90;59.00;;;;;;5052678;28;20500;-68
2023/10/30 02:00:53;;;;;;;5.20;4.80;;;21.80;59.00;;;;;;5052638;28;20413;-68
2023/10/30 02:03:19;;;;;;;4.90;4.50;;;21.80;59.00;;;;;;5051405;28;20424;-68
2023/10/30 02:05:44;;;;;;;4.73;4.33;;;21.90;59.00;;;;;;5052709;28;20430;-68
2023/10/30 02:08:11;;;;;;;4.97;4.57;;;21.90;59.00;;;;;;5052526;28;20174;-67
2023/10/30 02:10:36;;;;;;;4.60;4.20;;;21.90;59.60;;;;;;5052461;28;20199;-68
2023/10/30 02:13:07;;;;;;;4.87;4.47;;;21.90;59.00;;;;;;5052443;28;20951;-69
2023/10/30 02:15:33;;;;;;;4.60;4.20;;;21.90;59.00;;;;;;5052242;28;20286;-68
2023/10/30 02:17:59;;;;;;;5.13;4.73;;;21.90;59.00;;;;;;5052228;28;20851;-67
2023/10/30 02:20:25;;;;;;;5.23;4.73;;;21.90;59.00;;;;;;5052323;28;20412;-67
2023/10/30 02:22:51;;;;;;;4.50;3.93;;;21.80;59.00;;;;;;5052302;28;20171;-67
2023/10/30 02:25:18;;;;;;;5.00;4.60;;;21.80;59.00;;;;;;5052091;28;20432;-68
2023/10/30 02:27:44;;;;;;;5.10;4.60;;;21.90;59.10;;;;;;5052149;28;20179;-69
2023/10/30 02:30:11;;;;;;;4.80;4.40;;;21.80;59.00;;;;;;5052000;28;20449;-67
2023/10/30 02:32:41;;;;;;;4.87;4.47;;;21.90;59.00;;;;;;5052099;28;20195;-67
2023/10/30 02:35:07;;;;;;;5.23;4.83;;;21.90;59.00;;;;;;5051990;28;21078;-67
2023/10/30 02:37:32;;;;;;;5.30;4.80;;;21.80;59.00;;;;;;5052007;28;20501;-68
2023/10/30 02:39:58;;;;;;;5.17;4.77;;;21.80;59.00;;;;;;5050651;28;20190;-67
2023/10/30 02:42:23;;;;;;;5.00;4.60;;;21.90;59.00;;;;;;5051898;28;20175;-68
2023/10/30 02:44:49;;;;;;;5.73;5.23;;;21.80;59.00;;;;;;5051827;28;20191;-68
2023/10/30 02:47:14;;;;;;;5.00;4.50;;;21.90;59.00;;;;;;5051755;28;20171;-68
2023/10/30 02:49:40;;;;;;;4.70;4.20;;;21.80;59.00;;;;;;5051701;28;20203;-67
2023/10/30 02:52:06;;;;;;;4.67;4.27;;;21.80;59.00;;;;;;5051697;28;20237;-68
2023/10/30 02:54:32;;;;;;;4.60;4.20;;;21.80;59.00;;;;;;5051580;28;20195;-68
2023/10/30 02:56:57;;;;;;;4.23;3.93;;;21.80;59.00;;;;;;5051597;28;20410;-67
2023/10/30 02:59:23;;;;;;;4.70;4.30;;;21.80;59.50;;;;;;5051555;28;20174;-67
2023/10/30 03:01:48;;;;;;;5.20;4.70;;;21.90;59.00;;;;;;5051511;28;20710;-67
2023/10/30 03:04:16;;;;;;;5.07;4.67;;;21.80;59.00;;;;;;5051520;28;20179;-68
2023/10/30 03:06:42;;;;;;;5.60;5.10;;;21.90;59.00;;;;;;5051447;28;20171;-67
2023/10/30 03:09:08;;;;;;;5.23;4.80;;;21.80;59.00;;;;;;5051739;28;20420;-68
2023/10/30 03:11:33;;;;;;;4.73;4.30;;;21.80;59.00;;;;;;5051232;28;20289;-67
2023/10/30 03:13:59;;;;;;;5.10;4.63;;;21.80;59.00;;;;;;5049630;28;20182;-67
2023/10/30 03:16:25;;;;;;;5.50;5.10;;;21.80;59.00;;;;;;5051359;28;20199;-67
2023/10/30 03:18:50;;;;;;;5.30;4.70;;;21.80;59.00;;;;;;5051023;28;20183;-68
2023/10/30 03:21:16;;;;;;;3.93;3.63;;;21.90;59.10;;;;;;5051087;28;20654;-68
2023/10/30 03:23:42;;;;;;;4.63;4.23;;;21.90;59.00;;;;;;5051120;28;20228;-68
2023/10/30 03:26:07;;;;;;;6.60;5.53;;;21.80;59.00;;;;;;5051289;28;20210;-69
2023/10/30 03:28:33;;;;;;;5.17;4.77;;;21.90;59.00;;;;;;5050988;28;20171;-67
2023/10/30 03:31:09;;;;;;;5.70;5.03;;;21.80;58.90;;;;;;5051120;28;20205;-68
2023/10/30 03:33:35;;;;;;;4.80;4.40;;;21.80;58.90;;;;;;5051466;28;20179;-68
2023/10/30 03:36:02;;;;;;;4.93;4.53;;;21.80;59.00;;;;;;5050734;28;20433;-67
2023/10/30 03:38:27;;;;;;;5.00;4.60;;;21.90;59.00;;;;;;5050862;28;20420;-67
2023/10/30 03:40:53;;;;;;;6.13;5.63;;;21.90;59.00;;;;;;5050734;28;20409;-68
2023/10/30 03:43:19;;;;;;;5.40;5.00;;;21.80;59.00;;;;;;5050723;28;20232;-68
2023/10/30 03:45:44;;;;;;;4.70;4.30;;;21.80;59.00;;;;;;5050571;28;20203;-69
2023/10/30 03:48:10;;;;;;;5.53;5.03;;;21.80;59.00;;;;;;5050644;28;20182;-68
2023/10/30 03:50:35;;;;;;;5.63;5.10;;;21.90;59.00;;;;;;5049128;28;20218;-68
2023/10/30 03:53:01;;;;;;;4.70;4.30;;;21.80;59.00;;;;;;5050898;28;20171;-68
2023/10/30 03:55:27;;;;;;;4.70;4.30;;;21.80;58.90;;;;;;5050463;28;20546;-67
2023/10/30 03:57:52;;;;;;;5.93;5.43;;;21.80;59.00;;;;;;5050530;28;20712;-68
2023/10/30 04:00:18;;;;;;;4.83;4.43;;;21.90;59.00;;;;;;5050457;28;20171;-68
2023/10/30 04:02:44;;;;;;;4.77;4.37;;;21.80;59.00;;;;;;5050685;28;20179;-68
2023/10/30 04:05:09;;;;;;;5.40;4.90;;;21.80;59.00;;;;;;5050269;28;20642;-68
2023/10/30 04:07:35;;;;;;;5.40;4.93;;;21.90;59.00;;;;;;5050363;28;20423;-69
2023/10/30 04:10:01;;;;;;;5.20;4.73;;;21.80;59.00;;;;;;5050234;28;20575;-68
2023/10/30 04:12:27;;;;;;;4.80;4.40;;;21.80;59.00;;;;;;5050302;28;20197;-68
2023/10/30 04:14:52;;;;;;;4.83;4.53;;;21.80;58.90;;;;;;5050489;28;20430;-68
2023/10/30 04:17:18;;;;;;;5.00;4.60;;;21.80;59.00;;;;;;5050105;28;20163;-68
2023/10/30 04:19:44;;;;;;;4.93;4.30;;;21.90;59.00;;;;;;5050109;28;20171;-68
2023/10/30 04:22:09;;;;;;;5.17;4.70;;;21.90;59.00;;;;;;5050144;28;20970;-68
2023/10/30 04:24:35;;;;;;;5.50;5.00;;;21.80;59.00;;;;;;5050086;28;20175;-67
2023/10/30 04:27:01;;;;;;;4.97;4.57;;;21.80;59.00;;;;;;5049881;28;20532;-68
2023/10/30 04:29:26;;;;;;;5.07;4.67;;;21.90;59.00;;;;;;5049989;28;20167;-68
2023/10/30 04:31:52;;;;;;;5.40;4.90;;;21.90;59.10;;;;;;5049949;28;20609;-68
2023/10/30 04:34:19;;;;;;;5.30;4.80;;;21.80;59.00;;;;;;5049913;28;20209;-67
2023/10/30 04:36:45;;;;;;;4.60;4.20;;;21.90;59.00;;;;;;5050194;28;20522;-67
2023/10/30 04:39:10;;;;;;;5.50;5.00;;;21.80;59.00;;;;;;5049872;28;20409;-68
2023/10/30 04:41:36;;;;;;;5.00;4.53;;;21.80;58.90;;;;;;5049843;28;20186;-68
2023/10/30 04:44:02;;;;;;;4.90;4.50;;;21.90;59.20;;;;;;5049822;28;20175;-68
2023/10/30 04:46:28;;;;;;;4.97;4.50;;;21.90;59.00;;;;;;5049871;28;20198;-68
2023/10/30 04:48:54;;;;;;;4.73;4.33;;;21.80;58.90;;;;;;5050275;28;20405;-68
2023/10/30 04:51:19;;;;;;;4.47;4.17;;;21.90;59.00;;;;;;5049713;28;20313;-67
2023/10/30 04:53:45;;;;;;;4.83;4.43;;;21.80;58.90;;;;;;5049752;28;20611;-67
2023/10/30 04:56:10;;;;;;;4.77;4.37;;;21.80;58.90;;;;;;5049697;28;20195;-68
2023/10/30 04:58:36;;;;;;;5.17;4.77;;;21.80;58.90;;;;;;5049732;28;20167;-68
2023/10/30 05:01:08;;;;;;;4.63;4.23;;;21.90;59.00;;;;;;5049670;28;20171;-67
2023/10/30 05:03:37;;;;;;;5.13;4.70;;;21.80;58.90;;;;;;5049690;28;20178;-68
2023/10/30 05:06:04;;;;;;;5.03;4.63;;;21.80;58.90;;;;;;5049532;28;20426;-69
2023/10/30 05:08:29;;;;;;;4.50;4.17;;;21.80;58.90;;;;;;5049712;28;20424;-68
2023/10/30 05:10:55;;;;;;;5.40;5.00;;;21.80;58.90;;;;;;5049574;28;20445;-67
2023/10/30 05:13:20;;;;;;;4.43;4.03;;;21.80;58.90;;;;;;5049657;28;20171;-67
2023/10/30 05:15:46;;;;;;;4.73;4.33;;;21.80;58.90;;;;;;5048085;28;20201;-67
2023/10/30 05:18:13;;;;;;;4.83;4.30;;;21.80;58.90;;;;;;5049422;28;20584;-67
2023/10/30 05:20:39;;;;;;;4.07;3.73;;;21.80;58.90;;;;;;5049470;28;20413;-67
2023/10/30 05:23:04;;;;;;;4.30;4.00;;;21.80;58.90;;;;;;5049572;28;20414;-66
2023/10/30 05:25:30;;;;;;;4.87;4.47;;;21.80;58.90;;;;;;5049411;28;20922;-67
2023/10/30 05:27:57;;;;;;;4.47;4.10;;;21.80;59.00;;;;;;5049419;28;20648;-67
2023/10/30 05:30:23;;;;;;;4.13;3.83;;;21.80;59.00;;;;;;5049586;28;20207;-66
2023/10/30 05:32:48;;;;;;;4.90;4.40;;;21.80;59.00;;;;;;5049436;28;20749;-68
2023/10/30 05:35:14;;;;;;;4.77;4.40;;;21.80;59.00;;;;;;5049317;28;20273;-68
2023/10/30 05:37:40;;;;;;;5.37;4.90;;;21.80;59.00;;;;;;5052112;28;20205;-67
2023/10/30 05:40:07;;;;;;;5.37;4.87;;;21.80;59.00;;;;;;5053102;28;20182;-68
2023/10/30 05:42:34;;;;;;;4.97;4.57;;;21.80;59.00;;;;;;5052986;28;20262;-67
2023/10/30 05:44:59;;;;;;;4.47;4.10;;;21.80;59.00;;;;;;5052958;28;20457;-68
2023/10/30 05:47:25;;;;;;;4.80;4.40;;;21.80;59.00;;;;;;5053092;28;21003;-67
2023/10/30 05:49:51;;;;;;;4.83;4.43;;;21.80;59.00;;;;;;5052848;28;20225;-67
2023/10/30 05:52:16;;;;;;;5.03;4.63;;;21.80;59.00;;;;;;5052825;28;20171;-67
2023/10/30 05:54:42;;;;;;;4.53;4.20;;;21.80;59.00;;;;;;5052792;28;20225;-67
2023/10/30 05:57:09;;;;;;;4.57;4.17;;;21.80;59.00;;;;;;5052836;28;20204;-67
2023/10/30 05:59:34;;;;;;;4.50;4.10;;;21.80;59.00;;;;;;5052653;28;20183;-67
2023/10/30 06:02:00;;;;;;;5.83;5.23;;;21.80;59.00;;;;;;5052971;28;20420;-62
2023/10/30 06:04:26;;;;;;;4.80;4.40;;;21.80;59.00;;;;;;5052555;28;20179;-67
2023/10/30 06:06:53;;;;;;;5.37;4.93;;;21.80;59.00;;;;;;5052638;28;20421;-66
2023/10/30 06:09:18;;;;;;;4.60;4.23;;;21.80;59.00;;;;;;5052340;28;20258;-67
2023/10/30 06:11:48;;;;;;;4.87;4.47;;;21.80;59.00;;;;;;5052369;28;20579;-67
2023/10/30 06:14:14;;;;;;;4.80;4.40;;;21.80;59.00;;;;;;5052422;28;20182;-68
2023/10/30 06:16:40;;;;;;;4.33;4.00;;;21.80;59.00;;;;;;5050973;28;20517;-67
2023/10/30 06:19:06;;;;;;;4.63;4.23;;;21.80;58.90;;;;;;5052254;28;20437;-68
2023/10/30 06:21:32;;;;;;;4.83;4.43;;;21.80;58.90;;;;;;5052319;28;21305;-67
2023/10/30 06:23:57;;;;;;;4.60;4.20;;;21.80;59.00;;;;;;5052216;28;20171;-67
2023/10/30 06:26:23;;;;;;;4.77;4.37;;;21.80;59.00;;;;;;5052056;28;20548;-67
2023/10/30 06:28:48;;;;;;;5.20;4.70;;;21.80;59.00;;;;;;5052183;28;20178;-67
2023/10/30 06:31:15;;;;;;;4.60;4.20;;;21.80;59.00;;;;;;5052332;28;20230;-67
2023/10/30 06:33:42;;;;;;;4.80;4.40;;;21.80;59.00;;;;;;5052063;28;20167;-69
2023/10/30 06:36:07;;;;;;;4.50;4.20;;;21.80;59.00;;;;;;5051996;28;20440;-66
2023/10/30 06:38:34;;;;;;;4.77;4.37;;;21.80;59.00;;;;;;5052239;28;20401;-66
2023/10/30 06:41:00;;;;;;;4.20;3.90;;;21.80;59.00;;;;;;5051928;28;20182;-67
2023/10/30 06:43:25;;;;;;;4.30;3.90;;;21.90;59.00;;;;;;5051874;28;20414;-68
2023/10/30 06:46:11;;;;;;;4.10;3.80;;;21.90;59.00;;;;;;5051764;28;20440;-66
2023/10/30 06:48:37;;;;;;;4.20;3.90;;;21.80;59.00;;;;;;5050976;28;20666;-67
2023/10/30 06:51:03;;;;;;;4.77;4.37;;;21.80;59.00;;;;;;5051925;28;20583;-67
2023/10/30 06:53:29;;;;;;;3.60;3.30;;;21.90;59.00;;;;;;5051701;28;20492;-66
2023/10/30 06:55:54;;;;;;;4.37;4.07;;;21.80;59.00;;;;;;5051574;28;20183;-67
2023/10/30 06:58:23;;;;;;;5.03;4.57;;;21.80;59.00;;;;;;5051617;28;20745;-67
2023/10/30 07:00:49;;;;;;;4.30;3.97;;;21.80;58.90;;;;;;5051520;28;20171;-67
2023/10/30 07:03:15;;;;;;;4.43;4.03;;;21.80;58.90;;;;;;5051577;28;20467;-67
2023/10/30 07:05:42;;;;;;;3.77;3.47;;;21.80;58.90;;;;;;5051412;28;20429;-68
2023/10/30 07:08:08;;;;;;;4.63;4.23;;;21.80;58.90;;;;;;5051380;28;20417;-68
2023/10/30 07:10:35;;;;;;;4.63;4.23;;;21.80;58.90;;;;;;5051541;28;20457;-67
2023/10/30 07:13:00;;;;;;;4.23;3.83;;;21.90;59.00;;;;;;5051319;28;20410;-67
2023/10/30 07:15:26;;;;;;;4.40;4.10;;;21.80;59.00;;;;;;5051188;28;20488;-67
2023/10/30 07:17:55;;;;;;;3.80;3.50;;;21.90;59.10;;;;;;5051111;28;20183;-67
2023/10/30 07:20:21;;;;;;;4.30;3.90;;;21.80;59.00;;;;;;5051202;28;20489;-68
2023/10/30 07:22:46;;;;;;;3.97;3.67;;;21.80;59.00;;;;;;5051174;28;20504;-67
2023/10/30 07:25:12;;;;;;;4.00;3.70;;;21.80;59.10;;;;;;5051003;28;20197;-68
2023/10/30 07:27:37;;;;;;;3.90;3.60;;;21.80;59.10;;;;;;5051139;28;20174;-67
2023/10/30 07:30:03;;;;;;;3.80;3.50;;;21.80;59.00;;;;;;5050962;28;20170;-68
2023/10/30 07:32:29;;;;;;;4.30;3.90;;;21.80;59.00;;;;;;5051267;28;20708;-68
2023/10/30 07:34:55;;;;;;;4.13;3.83;;;21.80;59.10;;;;;;5050886;28;20510;-67
2023/10/30 07:37:20;;;;;;;4.30;4.00;;;21.80;59.10;;;;;;5050925;28;20622;-67
2023/10/30 07:39:46;;;;;;;5.33;4.40;;;21.90;59.10;;;;;;5050870;28;20183;-68
2023/10/30 07:42:12;;;;;;;4.00;3.60;;;21.90;59.10;;;;;;5050852;28;20179;-66
2023/10/30 07:44:37;;;;;;;3.77;3.47;;;21.90;59.10;;;;;;5050688;28;20237;-68
2023/10/30 07:47:04;;;;;;;4.00;3.70;;;21.90;59.10;;;;;;5051100;28;20186;-67
2023/10/30 07:49:30;;;;;;;4.37;3.97;;;21.90;59.10;;;;;;5050830;28;20665;-67
2023/10/30 07:51:55;;;;;;;3.77;3.47;;;21.90;59.10;;;;;;5050677;28;20453;-67
2023/10/30 07:54:22;;;;;;;3.47;3.27;;;21.80;59.10;;;;;;5050766;28;20268;-66
2023/10/30 07:56:48;;;;;;;3.67;3.37;;;21.90;59.10;;;;;;5050610;28;20534;-67
2023/10/30 07:59:14;;;;;;;4.00;3.70;;;21.90;59.10;;;;;;5050533;28;20416;-67
2023/10/30 08:01:40;;;;;;;3.97;3.67;;;21.90;59.10;;;;;;5049818;28;20186;-67
2023/10/30 08:04:06;;;;;;;3.57;3.30;;;21.90;59.20;;;;;;5050504;28;20409;-67
2023/10/30 08:06:32;;;;;;;3.87;3.57;;;21.90;59.10;;;;;;5050436;28;20570;-68
2023/10/30 08:08:58;;;;;;;3.87;3.57;;;21.90;59.10;;;;;;5050387;28;20198;-67
2023/10/30 08:11:24;;;;;;;3.90;3.53;;;21.90;59.10;;;;;;5050294;28;20500;-67
2023/10/30 08:13:49;;;;;;;4.00;3.70;;;21.90;59.10;;;;;;5050303;28;20418;-67
2023/10/30 08:16:15;;;;;;;3.80;3.50;;;21.90;59.10;;;;;;5050468;28;20207;-67
2023/10/30 08:18:41;;;;;;;4.20;3.30;;;21.90;59.10;;;;;;5050150;28;20273;-67
2023/10/30 08:21:09;;;;;;;4.03;3.63;;;21.90;59.10;;;;;;5050206;28;20203;-67
2023/10/30 08:23:36;;;;;;;4.27;3.97;;;21.90;59.10;;;;;;5050202;28;20519;-66
2023/10/30 08:26:05;;;;;;;3.83;3.53;;;21.90;59.10;;;;;;5050131;28;21279;-68
2023/10/30 08:28:30;;;;;;;3.67;3.37;;;21.90;59.10;;;;;;5050175;28;20406;-66
2023/10/30 08:30:56;;;;;;;3.80;3.50;;;21.90;59.10;;;;;;5050028;28;20460;-66
2023/10/30 08:33:21;;;;;;;4.63;4.23;;;21.90;59.10;;;;;;5050065;28;20175;-67
2023/10/30 08:35:47;;;;;;;4.30;3.90;;;21.90;59.10;;;;;;5050292;28;20249;-67
2023/10/30 08:38:13;;;;;;;3.77;3.47;;;21.90;59.10;;;;;;5050044;28;20616;-67
2023/10/30 08:40:38;;;;;;;3.97;3.67;;;21.90;59.20;;;;;;5050020;28;20562;-68
2023/10/30 08:43:04;;;;;;;4.13;3.83;;;21.90;59.10;;;;;;5050047;28;20218;-67
2023/10/30 08:45:30;;;;;;;3.93;3.57;;;21.90;59.10;;;;;;5049887;28;20199;-67
2023/10/30 08:47:55;;;;;;;4.00;3.60;;;21.90;59.10;;;;;;5050244;28;20190;-67
2023/10/30 08:50:21;;;;;;;4.03;3.63;;;21.90;59.10;;;;;;5049860;28;20198;-68
2023/10/30 08:52:46;;;;;;;4.33;4.00;;;22.00;59.20;;;;;;5049850;28;20224;-67
2023/10/30 08:55:12;;;;;;;3.30;3.10;;;21.90;59.00;;;;;;5050158;28;20202;-67
2023/10/30 08:57:38;;;;;;;4.00;3.70;;;21.90;59.10;;;;;;5049904;28;20175;-67
2023/10/30 09:00:07;;;;;;;3.63;3.33;;;21.90;59.10;;;;;;5049814;28;20171;-67
2023/10/30 09:02:33;;;;;;;3.60;3.30;;;21.90;59.10;;;;;;5049789;28;20181;-68
2023/10/30 09:04:59;;;;;;;3.50;3.27;;;21.90;59.10;;;;;;5049758;28;20441;-67
2023/10/30 09:07:24;;;;;;;3.70;3.40;;;21.90;59.10;;;;;;5049774;28;20422;-68
2023/10/30 09:09:50;;;;;;;3.80;3.50;;;21.90;59.10;;;;;;5049857;28;20183;-67
2023/10/30 09:12:17;;;;;;;4.40;4.00;;;21.90;59.20;;;;;;5051703;28;20674;-67
2023/10/30 09:14:42;;;;;;;3.63;3.33;;;21.90;59.20;;;;;;5054012;28;20194;-68
2023/10/30 09:17:09;;;;;;;3.40;3.10;;;21.90;59.20;;;;;;5053644;28;20425;-67
2023/10/30 09:19:36;;;;;;;3.90;3.50;;;22.00;59.30;;;;;;5053592;28;20241;-67
2023/10/30 09:22:01;;;;;;;3.97;3.67;;;22.00;59.30;;;;;;5053513;28;20421;-66
2023/10/30 09:24:27;;;;;;;3.90;3.60;;;22.00;59.30;;;;;;5053404;28;20463;-65
2023/10/30 09:26:52;;;;;;;3.70;3.40;;;22.00;59.40;;;;;;5053522;28;20201;-67
2023/10/30 09:29:18;;;;;;;3.70;3.40;;;22.00;59.30;;;;;;5053394;28;20179;-67
2023/10/30 09:31:44;;;;;;;3.93;3.60;;;22.00;59.30;;;;;;5053286;28;20203;-67
2023/10/30 09:34:10;;;;;;;4.37;3.97;;;22.00;59.30;;;;;;5053380;28;20249;-65
2023/10/30 09:36:36;;;;;;;4.00;3.70;;;22.00;59.30;;;;;;5053201;28;20661;-67
2023/10/30 09:39:01;;;;;;;4.03;3.70;;;22.00;59.30;;;;;;5053282;28;20419;-67
2023/10/30 09:41:28;;;;;;;3.57;3.27;;;22.00;59.30;;;;;;5053505;28;20262;-68
2023/10/30 09:43:56;;;;;;;3.30;3.00;;;22.00;59.30;;;;;;5053540;28;20232;-68
2023/10/30 09:46:27;;;;;;;4.03;3.63;;;22.00;59.30;;;;;;5053060;28;20567;-66
2023/10/30 09:48:55;;;;;;;4.13;3.80;;;22.00;59.30;;;;;;5053236;28;20892;-67
2023/10/30 09:51:22;;;;;;;3.47;3.17;;;22.00;59.30;;;;;;5053001;28;20500;-67
2023/10/30 09:53:50;;;;;;;3.70;3.30;;;22.00;59.20;;;;;;5053056;28;20417;-67
2023/10/30 09:56:17;;;;;;;3.23;2.93;;;22.00;59.30;;;;;;5053260;28;20425;-67
2023/10/30 09:58:42;;;;;;;3.70;3.40;;;22.00;59.30;;;;;;5053644;28;20863;-65
2023/10/30 10:01:08;;;;;;;3.43;3.13;;;22.00;59.30;;;;;;5052761;28;20424;-66
2023/10/30 10:03:33;;;;;;;3.47;3.17;;;22.00;59.30;;;;;;5052898;28;20179;-67
2023/10/30 10:06:00;;;;;;;3.67;3.37;;;22.00;59.30;;;;;;5052769;28;20199;-66
2023/10/30 10:08:26;;;;;;;3.83;3.53;;;22.00;59.30;;;;;;5052783;28;20620;-68
2023/10/30 10:11:00;;;;;;;3.53;3.23;;;22.00;59.30;;;;;;5052745;28;20457;-67
2023/10/30 10:13:32;;;;;;;3.80;3.47;;;22.00;59.30;;;;;;5052747;28;20389;-66
2023/10/30 10:15:58;;;;;;;3.93;3.63;;;22.00;59.30;;;;;;5052570;28;20425;-66
2023/10/30 10:18:27;;;;;;;3.70;3.40;;;22.00;59.30;;;;;;5052420;28;20429;-67
2023/10/30 10:21:00;;;;;;;3.60;3.30;;;22.00;59.30;;;;;;5052844;28;20436;-66
2023/10/30 10:23:31;;;;;;;3.73;3.43;;;22.00;59.30;;;;;;5051617;28;20455;-67
2023/10/30 10:26:00;;;;;;;3.70;3.40;;;22.00;59.20;;;;;;5052629;28;20831;-67
2023/10/30 10:28:26;;;;;;;3.43;3.13;;;22.00;59.30;;;;;;5052265;28;20800;-67
2023/10/30 10:30:53;;;;;;;3.90;3.60;;;22.00;59.20;;;;;;5052332;28;20457;-67
2023/10/30 10:33:24;;;;;;;3.40;3.10;;;22.00;59.20;;;;;;5052344;28;20432;-68
2023/10/30 10:35:53;;;;;;;3.33;3.10;;;22.00;59.20;;;;;;5052262;28;20968;-68
2023/10/30 10:38:21;;;;;;;3.67;3.37;;;22.00;59.20;;;;;;5052463;28;20412;-67
2023/10/30 10:40:47;;;;;;;3.10;2.90;;;22.00;59.20;;;;;;5052181;28;20862;-67
2023/10/30 10:43:18;;;;;;;3.70;3.33;;;22.10;59.30;;;;;;5052114;28;20449;-67
2023/10/30 10:45:46;;;;;;;3.60;3.30;;;22.00;59.20;;;;;;5052124;28;20467;-67
2023/10/30 10:48:12;;;;;;;3.67;3.37;;;22.10;59.20;;;;;;5052145;28;20912;-67
2023/10/30 10:50:37;;;;;;;4.27;3.97;;;22.00;59.20;;;;;;5051937;28;20464;-67
2023/10/30 10:53:07;;;;;;;3.40;3.10;;;22.00;59.20;;;;;;5052054;28;20175;-66
2023/10/30 10:55:41;;;;;;;3.10;2.90;;;22.00;59.20;;;;;;5051841;28;20618;-67
2023/10/30 10:58:12;;;;;;;3.00;2.80;;;22.00;59.20;;;;;;5051852;28;20406;-67
2023/10/30 11:00:48;;;;;;;3.13;2.83;;;22.00;59.20;;;;;;5051884;28;20441;-67
2023/10/30 11:03:14;;;;;;;4.00;3.70;;;22.00;59.30;;;;;;5051756;28;20468;-68
2023/10/30 11:05:41;;;;;;;3.20;2.90;;;22.00;59.30;;;;;;5051980;28;20536;-67
2023/10/30 11:08:12;;;;;;;3.47;3.17;;;22.00;59.30;;;;;;5051960;28;20816;-67
2023/10/30 11:10:43;;;;;;;3.43;3.13;;;22.10;59.40;;;;;;5051504;28;20449;-67
2023/10/30 11:13:15;;;;;;;3.90;3.50;;;22.00;59.30;;;;;;5051910;28;20804;-67
2023/10/30 11:15:49;;;;;;;3.10;2.80;;;22.00;59.30;;;;;;5051522;28;20433;-67
2023/10/30 11:18:21;;;;;;;3.20;2.90;;;22.00;59.30;;;;;;5050053;28;20456;-67
2023/10/30 11:20:52;;;;;;;3.33;3.00;;;22.00;59.30;;;;;;5051603;28;20424;-67
2023/10/30 11:23:44;;;;;;;3.67;3.37;;;22.00;59.30;;;;;;5051303;28;20394;-66
2023/10/30 11:26:28;;;;;;;3.47;3.17;;;22.00;59.30;;;;;;5051044;28;20449;-66
2023/10/30 11:28:54;;;;;;;2.90;2.70;;;22.00;59.30;;;;;;5051289;28;20402;-67
2023/10/30 11:31:19;;;;;;;3.50;3.20;;;22.00;59.40;;;;;;5050872;28;20964;-63
2023/10/30 11:33:45;;;;;;;3.37;3.07;;;22.00;59.30;;;;;;5051037;28;20190;-66
2023/10/30 11:36:17;;;;;;;3.60;3.30;;;22.00;59.30;;;;;;5051107;28;20202;-68
2023/10/30 11:38:51;;;;;;;3.43;3.13;;;22.00;59.30;;;;;;5050960;28;20175;-66
2023/10/30 11:41:17;;;;;;;3.13;2.90;;;22.10;59.40;;;;;;5050968;28;20496;-67
2023/10/30 11:43:43;;;;;;;3.40;3.10;;;22.10;59.40;;;;;;5050883;28;20504;-69
2023/10/30 11:46:12;;;;;;;3.23;2.93;;;22.10;59.40;;;;;;5050804;28;20205;-68
2023/10/30 11:48:38;;;;;;;2.77;2.57;;;22.10;59.40;;;;;;5050715;28;20225;-67
2023/10/30 11:51:04;;;;;;;3.80;3.50;;;22.10;59.40;;;;;;5050994;28;20461;-67
2023/10/30 11:53:30;;;;;;;3.30;2.97;;;22.10;59.40;;;;;;5050733;28;20437;-67
2023/10/30 11:55:57;;;;;;;3.37;3.07;;;22.10;59.30;;;;;;5050566;28;20484;-67
2023/10/30 11:58:23;;;;;;;3.03;2.83;;;22.10;59.30;;;;;;5050658;28;20171;-67
2023/10/30 12:00:49;;;;;;;3.07;2.83;;;22.10;59.30;;;;;;5050875;28;20906;-67
2023/10/30 12:03:15;;;;;;;2.77;2.57;;;22.10;59.30;;;;;;5050578;28;20462;-68
2023/10/30 12:05:41;;;;;;;2.87;2.67;;;22.10;59.30;;;;;;5050692;28;20619;-68
2023/10/30 12:08:09;;;;;;;3.77;3.47;;;22.10;59.30;;;;;;5049165;28;20460;-68
2023/10/30 12:10:35;;;;;;;3.30;3.10;;;22.10;59.30;;;;;;5050342;28;20221;-67
2023/10/30 12:13:01;;;;;;;3.40;3.10;;;22.10;59.40;;;;;;5050466;28;20504;-68
2023/10/30 12:15:26;;;;;;;2.90;2.70;;;22.10;59.40;;;;;;5050226;28;20226;-68
2023/10/30 12:17:52;;;;;;;2.90;2.70;;;22.10;59.40;;;;;;5050234;28;20187;-68
2023/10/30 12:20:18;;;;;;;3.40;3.10;;;22.10;59.40;;;;;;5050285;28;20229;-67
2023/10/30 12:22:46;;;;;;;2.70;2.50;;;22.10;59.40;;;;;;5050183;28;20233;-68
2023/10/30 12:25:19;;;;;;;3.00;2.80;;;22.10;59.40;;;;;;5048724;28;20290;-68
2023/10/30 12:27:45;;;;;;;3.40;3.10;;;22.10;59.40;;;;;;5050367;28;20417;-68
2023/10/30 12:30:16;;;;;;;2.93;2.73;;;22.10;59.40;;;;;;5050067;28;20892;-68
2023/10/30 12:32:42;;;;;;;2.77;2.57;;;22.10;59.40;;;;;;5050093;28;20414;-67
2023/10/30 12:35:14;;;;;;;3.03;2.83;;;22.10;59.40;;;;;;5050265;28;20436;-68
2023/10/30 12:37:40;;;;;;;2.97;2.77;;;22.10;59.40;;;;;;5050266;28;20179;-66
2023/10/30 12:40:13;;;;;;;3.23;3.03;;;22.10;59.40;;;;;;5049970;28;20905;-68
2023/10/30 12:42:40;;;;;;;3.57;3.27;;;22.10;59.40;;;;;;5050121;28;20398;-68
2023/10/30 12:45:09;;;;;;;3.50;3.20;;;22.10;59.40;;;;;;5049898;28;20425;-67